Lake Murray, South Carolina
Current Conditions -  °F | °C
As of 2:15 PM on Friday 21 Nov 2014 (Local Time) from KFDW Reporting Station
Clear Clear  
Wind Chill: 61°   Ceiling: Unl
Heat Index: 61°   Visibility: 10mi
Dew Point: 27°   Wind: 9mph
Humidity: 27%   Direction: 330°NNW
Pressure: 30.36"   Gusts: NA
Location:  34.1436°N, 81.3335°W
Report Text: KFDW 211915Z AUTO 33008KT 10SM CLR 16/M03 A3036 RMK AO1
Loading
Personal Weather Stations






























Interactive Weather Map New forecast layout! Learn more

10-Day Weather Forecast

Advertisements
Track Severe Weather on mobile